PSBER MUHA-MMUN
Flight info
| Callsign | PSBER |
|---|---|
| Flight time | 1h 5m |
| Altitude | 40000 |
| Route | EPMAR4A MUPKI UB879 NOSAT NOSAT1B |
| Aircraft | CL60/M-SBDE1E2E3FGHIJ1J4J5J7M3RWXYZ/LB1V1D1 |
Departure
| Time | 2026-05-06 00:03 |
|---|---|
| Airport | José Martí International Airport (MUHA) |
Arrival
| Time | 2026-05-06 01:08 |
|---|---|
| Airport | Cancún International Airport (MMUN) |
| Time | Latitude | Longitude | Altitude | Speed | Heading |
|---|---|---|---|---|---|
| 2026-05-06 00:01 | 22.97876 | -82.42473 | 220 ft | 0 kts | 88° |
| 2026-05-06 00:01 | 22.97876 | -82.42471 | 220 ft | 1 kts | 88° |
| 2026-05-06 00:02 | 22.97889 | -82.42454 | 220 ft | 4 kts | 52° |
| 2026-05-06 00:02 | 22.97907 | -82.42429 | 220 ft | 14 kts | 54° |
| 2026-05-06 00:02 | 22.98136 | -82.42085 | 221 ft | 100 kts | 54° |
| 2026-05-06 00:02 | 22.98676 | -82.41259 | 328 ft | 159 kts | 54° |
| 2026-05-06 00:03 | 22.99360 | -82.40259 | 980 ft | 171 kts | 52° |
| 2026-05-06 00:03 | 23.00105 | -82.39243 | 1805 ft | 179 kts | 52° |
| 2026-05-06 00:03 | 23.00933 | -82.38137 | 2501 ft | 203 kts | 52° |
| 2026-05-06 00:03 | 23.01861 | -82.36934 | 3367 ft | 217 kts | 49° |
| 2026-05-06 00:04 | 23.02911 | -82.35692 | 4277 ft | 225 kts | 45° |
| 2026-05-06 00:04 | 23.04001 | -82.34426 | 5198 ft | 244 kts | 48° |
| 2026-05-06 00:04 | 23.05128 | -82.32965 | 6253 ft | 264 kts | 52° |
| 2026-05-06 00:04 | 23.06237 | -82.31345 | 7489 ft | 274 kts | 52° |
| 2026-05-06 00:05 | 23.08410 | -82.27905 | 9959 ft | 289 kts | 67° |
| 2026-05-06 00:05 | 23.08909 | -82.25765 | 11109 ft | 299 kts | 81° |
| 2026-05-06 00:05 | 23.09663 | -82.23717 | 12207 ft | 303 kts | 54° |
| 2026-05-06 00:06 | 23.10943 | -82.21791 | 12790 ft | 330 kts | 51° |
| 2026-05-06 00:06 | 23.12665 | -82.20061 | 13578 ft | 342 kts | 30° |
| 2026-05-06 00:06 | 23.14836 | -82.18972 | 14268 ft | 355 kts | 13° |
| 2026-05-06 00:06 | 23.17311 | -82.18681 | 15092 ft | 359 kts | 353° |
| 2026-05-06 00:07 | 23.19709 | -82.19318 | 16140 ft | 357 kts | 339° |
| 2026-05-06 00:07 | 23.22004 | -82.20234 | 17283 ft | 353 kts | 338° |
| 2026-05-06 00:07 | 23.24166 | -82.21455 | 18252 ft | 353 kts | 324° |
| 2026-05-06 00:07 | 23.25985 | -82.23317 | 18970 ft | 362 kts | 309° |
| 2026-05-06 00:08 | 23.27249 | -82.25761 | 19586 ft | 374 kts | 292° |
| 2026-05-06 00:08 | 23.27734 | -82.28608 | 20257 ft | 387 kts | 272° |
| 2026-05-06 00:08 | 23.27296 | -82.31556 | 20995 ft | 395 kts | 261° |
| 2026-05-06 00:08 | 23.26609 | -82.34476 | 21790 ft | 397 kts | 259° |
| 2026-05-06 00:09 | 23.25901 | -82.37436 | 22508 ft | 399 kts | 259° |
| 2026-05-06 00:09 | 23.25206 | -82.40363 | 23136 ft | 405 kts | 259° |
| 2026-05-06 00:09 | 23.24497 | -82.43359 | 23760 ft | 410 kts | 259° |
| 2026-05-06 00:09 | 23.23785 | -82.46365 | 24374 ft | 415 kts | 260° |
| 2026-05-06 00:10 | 23.23303 | -82.48404 | 24767 ft | 418 kts | 260° |
| 2026-05-06 00:10 | 23.22274 | -82.52763 | 25597 ft | 424 kts | 260° |
| 2026-05-06 00:10 | 23.21543 | -82.55858 | 26199 ft | 427 kts | 260° |
| 2026-05-06 00:10 | 23.20799 | -82.59012 | 26750 ft | 431 kts | 260° |
| 2026-05-06 00:11 | 23.20056 | -82.62165 | 27245 ft | 435 kts | 260° |
| 2026-05-06 00:11 | 23.19282 | -82.65443 | 27751 ft | 440 kts | 259° |
| 2026-05-06 00:11 | 23.18507 | -82.68729 | 28239 ft | 444 kts | 259° |
| 2026-05-06 00:11 | 23.17739 | -82.71985 | 28731 ft | 447 kts | 260° |
| 2026-05-06 00:12 | 23.16935 | -82.75390 | 29231 ft | 450 kts | 260° |
| 2026-05-06 00:12 | 23.16147 | -82.78721 | 29732 ft | 451 kts | 260° |
| 2026-05-06 00:12 | 23.15344 | -82.82114 | 30294 ft | 451 kts | 260° |
| 2026-05-06 00:12 | 23.14551 | -82.85462 | 30882 ft | 450 kts | 261° |
| 2026-05-06 00:13 | 23.13740 | -82.88886 | 31493 ft | 448 kts | 261° |
| 2026-05-06 00:13 | 23.12950 | -82.92216 | 32093 ft | 446 kts | 261° |
| 2026-05-06 00:13 | 23.12170 | -82.95506 | 32648 ft | 444 kts | 261° |
| 2026-05-06 00:13 | 23.11407 | -82.98719 | 33220 ft | 442 kts | 261° |
| 2026-05-06 00:14 | 23.10624 | -83.02011 | 33833 ft | 440 kts | 261° |
| 2026-05-06 00:14 | 23.09853 | -83.05251 | 34432 ft | 438 kts | 261° |
| 2026-05-06 00:14 | 23.09077 | -83.08514 | 35029 ft | 435 kts | 261° |
| 2026-05-06 00:14 | 23.08289 | -83.11820 | 35585 ft | 434 kts | 262° |
| 2026-05-06 00:15 | 23.07506 | -83.15106 | 36129 ft | 431 kts | 262° |
| 2026-05-06 00:15 | 23.06734 | -83.18342 | 36602 ft | 430 kts | 262° |
| 2026-05-06 00:15 | 23.05959 | -83.21588 | 37073 ft | 429 kts | 262° |
| 2026-05-06 00:15 | 23.05189 | -83.24809 | 37501 ft | 428 kts | 262° |
| 2026-05-06 00:16 | 23.04437 | -83.27959 | 37847 ft | 428 kts | 262° |
| 2026-05-06 00:16 | 23.03664 | -83.31190 | 38222 ft | 427 kts | 262° |
| 2026-05-06 00:16 | 23.02892 | -83.34413 | 38589 ft | 427 kts | 262° |
| 2026-05-06 00:16 | 23.02135 | -83.37570 | 38977 ft | 425 kts | 262° |
| 2026-05-06 00:17 | 23.01379 | -83.40719 | 39301 ft | 425 kts | 262° |
| 2026-05-06 00:17 | 23.00603 | -83.43952 | 39631 ft | 425 kts | 262° |
| 2026-05-06 00:17 | 22.99827 | -83.47179 | 39919 ft | 425 kts | 262° |
| 2026-05-06 00:18 | 22.98290 | -83.53578 | 39998 ft | 433 kts | 262° |
| 2026-05-06 00:18 | 22.96745 | -83.59991 | 39994 ft | 438 kts | 262° |
| 2026-05-06 00:19 | 22.95188 | -83.66437 | 39985 ft | 440 kts | 262° |
| 2026-05-06 00:19 | 22.93630 | -83.72865 | 39988 ft | 438 kts | 262° |
| 2026-05-06 00:20 | 22.92084 | -83.79233 | 39990 ft | 437 kts | 262° |
| 2026-05-06 00:20 | 22.90539 | -83.85591 | 39988 ft | 438 kts | 262° |
| 2026-05-06 00:21 | 22.88979 | -83.91995 | 39989 ft | 437 kts | 261° |
| 2026-05-06 00:21 | 22.87434 | -83.98328 | 39990 ft | 437 kts | 262° |
| 2026-05-06 00:22 | 22.85879 | -84.04691 | 39989 ft | 438 kts | 262° |
| 2026-05-06 00:22 | 22.84317 | -84.11075 | 39988 ft | 439 kts | 262° |
| 2026-05-06 00:23 | 22.82755 | -84.17442 | 39991 ft | 440 kts | 261° |
| 2026-05-06 00:23 | 22.81179 | -84.23853 | 39988 ft | 439 kts | 261° |
| 2026-05-06 00:24 | 22.79604 | -84.30248 | 39989 ft | 440 kts | 261° |
| 2026-05-06 00:24 | 22.77983 | -84.36821 | 39989 ft | 440 kts | 261° |
| 2026-05-06 00:25 | 22.76378 | -84.43314 | 39988 ft | 441 kts | 261° |
| 2026-05-06 00:25 | 22.74794 | -84.49711 | 39987 ft | 441 kts | 261° |
| 2026-05-06 00:26 | 22.73204 | -84.56119 | 39988 ft | 441 kts | 261° |
| 2026-05-06 00:26 | 22.71612 | -84.62528 | 39990 ft | 441 kts | 261° |
| 2026-05-06 00:27 | 22.70003 | -84.68991 | 39989 ft | 441 kts | 261° |
| 2026-05-06 00:27 | 22.68396 | -84.75432 | 39988 ft | 442 kts | 261° |
| 2026-05-06 00:28 | 22.66771 | -84.81937 | 39988 ft | 442 kts | 261° |
| 2026-05-06 00:28 | 22.65155 | -84.88391 | 39990 ft | 442 kts | 261° |
| 2026-05-06 00:29 | 22.63543 | -84.94817 | 39989 ft | 442 kts | 260° |
| 2026-05-06 00:29 | 22.61921 | -85.01259 | 39988 ft | 444 kts | 259° |
| 2026-05-06 00:30 | 22.59544 | -85.07482 | 39989 ft | 455 kts | 246° |
| 2026-05-06 00:30 | 22.55897 | -85.13095 | 39986 ft | 460 kts | 238° |
| 2026-05-06 00:31 | 22.52032 | -85.18636 | 39988 ft | 460 kts | 238° |
| 2026-05-06 00:31 | 22.48174 | -85.24165 | 39986 ft | 460 kts | 238° |
| 2026-05-06 00:32 | 22.44318 | -85.29687 | 39986 ft | 460 kts | 238° |
| 2026-05-06 00:32 | 22.40456 | -85.35212 | 39988 ft | 460 kts | 238° |
| 2026-05-06 00:33 | 22.36591 | -85.40736 | 39990 ft | 461 kts | 238° |
| 2026-05-06 00:33 | 22.32719 | -85.46265 | 39989 ft | 461 kts | 238° |
| 2026-05-06 00:34 | 22.28842 | -85.51796 | 39990 ft | 461 kts | 238° |
| 2026-05-06 00:34 | 22.24954 | -85.57336 | 39989 ft | 461 kts | 238° |
| 2026-05-06 00:35 | 22.21039 | -85.62927 | 39988 ft | 461 kts | 238° |
| 2026-05-06 00:35 | 22.17159 | -85.68469 | 39989 ft | 461 kts | 238° |
| 2026-05-06 00:36 | 22.13218 | -85.74092 | 39989 ft | 461 kts | 238° |
| 2026-05-06 00:36 | 22.09328 | -85.79637 | 39988 ft | 461 kts | 238° |
| 2026-05-06 00:37 | 22.05420 | -85.85201 | 39989 ft | 462 kts | 237° |
| 2026-05-06 00:37 | 22.01528 | -85.90737 | 39989 ft | 462 kts | 237° |
| 2026-05-06 00:38 | 21.97580 | -85.96338 | 39988 ft | 462 kts | 236° |
| 2026-05-06 00:38 | 21.92801 | -86.01477 | 39986 ft | 469 kts | 225° |
| 2026-05-06 00:39 | 21.87710 | -86.06264 | 39983 ft | 469 kts | 225° |
| 2026-05-06 00:39 | 21.82673 | -86.11000 | 39983 ft | 465 kts | 225° |
| 2026-05-06 00:39 | 21.80191 | -86.13330 | 39834 ft | 454 kts | 225° |
| 2026-05-06 00:40 | 21.77773 | -86.15601 | 39177 ft | 451 kts | 225° |
| 2026-05-06 00:40 | 21.75426 | -86.17806 | 38300 ft | 453 kts | 225° |
| 2026-05-06 00:40 | 21.73042 | -86.20047 | 37380 ft | 456 kts | 225° |
| 2026-05-06 00:40 | 21.70627 | -86.22315 | 36493 ft | 457 kts | 225° |
| 2026-05-06 00:41 | 21.68257 | -86.24538 | 35886 ft | 453 kts | 225° |
| 2026-05-06 00:41 | 21.65888 | -86.26759 | 35372 ft | 447 kts | 225° |
| 2026-05-06 00:41 | 21.63547 | -86.28954 | 34910 ft | 440 kts | 225° |
| 2026-05-06 00:41 | 21.61257 | -86.31099 | 34443 ft | 428 kts | 225° |
| 2026-05-06 00:42 | 21.59041 | -86.33176 | 33820 ft | 419 kts | 225° |
| 2026-05-06 00:42 | 21.56849 | -86.35229 | 33097 ft | 414 kts | 225° |
| 2026-05-06 00:42 | 21.54705 | -86.37239 | 32407 ft | 409 kts | 225° |
| 2026-05-06 00:42 | 21.52534 | -86.39202 | 31739 ft | 406 kts | 220° |
| 2026-05-06 00:43 | 21.50200 | -86.40923 | 31093 ft | 402 kts | 217° |
| 2026-05-06 00:43 | 21.47876 | -86.42577 | 30451 ft | 397 kts | 217° |
| 2026-05-06 00:43 | 21.45584 | -86.44212 | 29844 ft | 392 kts | 217° |
| 2026-05-06 00:43 | 21.43313 | -86.45833 | 29248 ft | 387 kts | 217° |
| 2026-05-06 00:44 | 21.41114 | -86.47401 | 28674 ft | 383 kts | 216° |
| 2026-05-06 00:44 | 21.38903 | -86.48979 | 28133 ft | 378 kts | 216° |
| 2026-05-06 00:44 | 21.36727 | -86.50532 | 27582 ft | 373 kts | 217° |
| 2026-05-06 00:44 | 21.34564 | -86.52076 | 27050 ft | 369 kts | 217° |
| 2026-05-06 00:45 | 21.32449 | -86.53587 | 26542 ft | 365 kts | 217° |
| 2026-05-06 00:45 | 21.30350 | -86.55087 | 26040 ft | 361 kts | 217° |
| 2026-05-06 00:45 | 21.28261 | -86.56578 | 25560 ft | 357 kts | 217° |
| 2026-05-06 00:45 | 21.26201 | -86.58049 | 25107 ft | 352 kts | 217° |
| 2026-05-06 00:46 | 21.24188 | -86.59486 | 24668 ft | 348 kts | 217° |
| 2026-05-06 00:46 | 21.22183 | -86.60917 | 24225 ft | 345 kts | 217° |
| 2026-05-06 00:46 | 21.20194 | -86.62336 | 23807 ft | 341 kts | 217° |
| 2026-05-06 00:46 | 21.18234 | -86.63734 | 23417 ft | 337 kts | 217° |
| 2026-05-06 00:47 | 21.16269 | -86.65135 | 23019 ft | 333 kts | 216° |
| 2026-05-06 00:47 | 21.14361 | -86.66496 | 22615 ft | 330 kts | 216° |
| 2026-05-06 00:47 | 21.12473 | -86.67841 | 22203 ft | 327 kts | 217° |
| 2026-05-06 00:47 | 21.10628 | -86.69256 | 21771 ft | 323 kts | 226° |
| 2026-05-06 00:48 | 21.09259 | -86.71127 | 21343 ft | 314 kts | 247° |
| 2026-05-06 00:48 | 21.08603 | -86.73314 | 20906 ft | 306 kts | 266° |
| 2026-05-06 00:48 | 21.08671 | -86.75537 | 20555 ft | 297 kts | 285° |
| 2026-05-06 00:48 | 21.09364 | -86.77560 | 20265 ft | 288 kts | 302° |
| 2026-05-06 00:49 | 21.10426 | -86.79336 | 19976 ft | 283 kts | 306° |
| 2026-05-06 00:49 | 21.11512 | -86.81070 | 19707 ft | 279 kts | 306° |
| 2026-05-06 00:49 | 21.12585 | -86.82790 | 19432 ft | 276 kts | 306° |
| 2026-05-06 00:49 | 21.13652 | -86.84502 | 19148 ft | 274 kts | 307° |
| 2026-05-06 00:50 | 21.14718 | -86.86209 | 18871 ft | 272 kts | 307° |
| 2026-05-06 00:50 | 21.15770 | -86.87895 | 18611 ft | 270 kts | 307° |
| 2026-05-06 00:50 | 21.16806 | -86.89556 | 18343 ft | 268 kts | 307° |
| 2026-05-06 00:50 | 21.17841 | -86.91217 | 18094 ft | 265 kts | 307° |
| 2026-05-06 00:51 | 21.18855 | -86.92844 | 17866 ft | 263 kts | 308° |
| 2026-05-06 00:51 | 21.19531 | -86.93928 | 17719 ft | 262 kts | 308° |
| 2026-05-06 00:51 | 21.20880 | -86.96094 | 17427 ft | 260 kts | 308° |
| 2026-05-06 00:51 | 21.21882 | -86.97703 | 17229 ft | 258 kts | 308° |
| 2026-05-06 00:52 | 21.22873 | -86.99294 | 17033 ft | 256 kts | 308° |
| 2026-05-06 00:52 | 21.23862 | -87.00883 | 16823 ft | 255 kts | 308° |
| 2026-05-06 00:52 | 21.24843 | -87.02456 | 16612 ft | 255 kts | 308° |
| 2026-05-06 00:52 | 21.25832 | -87.04041 | 16420 ft | 254 kts | 308° |
| 2026-05-06 00:53 | 21.26805 | -87.05611 | 16222 ft | 254 kts | 307° |
| 2026-05-06 00:53 | 21.27764 | -87.07178 | 16028 ft | 253 kts | 307° |
| 2026-05-06 00:53 | 21.28742 | -87.08770 | 15842 ft | 252 kts | 307° |
| 2026-05-06 00:53 | 21.29697 | -87.10320 | 15667 ft | 252 kts | 307° |
| 2026-05-06 00:54 | 21.30666 | -87.11893 | 15479 ft | 252 kts | 307° |
| 2026-05-06 00:54 | 21.31640 | -87.13465 | 15298 ft | 251 kts | 307° |
| 2026-05-06 00:54 | 21.32611 | -87.15030 | 15117 ft | 251 kts | 307° |
| 2026-05-06 00:54 | 21.33569 | -87.16578 | 14957 ft | 250 kts | 307° |
| 2026-05-06 00:55 | 21.34545 | -87.18144 | 14787 ft | 250 kts | 307° |
| 2026-05-06 00:55 | 21.35502 | -87.19678 | 14630 ft | 250 kts | 307° |
| 2026-05-06 00:55 | 21.36465 | -87.21220 | 14422 ft | 245 kts | 307° |
| 2026-05-06 00:55 | 21.37414 | -87.22729 | 14024 ft | 246 kts | 307° |
| 2026-05-06 00:56 | 21.38382 | -87.24263 | 13623 ft | 246 kts | 308° |
| 2026-05-06 00:56 | 21.39339 | -87.25774 | 13251 ft | 246 kts | 307° |
| 2026-05-06 00:56 | 21.40298 | -87.27284 | 12887 ft | 245 kts | 305° |
| 2026-05-06 00:56 | 21.40887 | -87.28990 | 12509 ft | 250 kts | 275° |
| 2026-05-06 00:57 | 21.40517 | -87.30797 | 12112 ft | 256 kts | 241° |
| 2026-05-06 00:57 | 21.39303 | -87.32177 | 11745 ft | 256 kts | 219° |
| 2026-05-06 00:57 | 21.37812 | -87.33245 | 11385 ft | 254 kts | 203° |
| 2026-05-06 00:57 | 21.36096 | -87.33583 | 11009 ft | 252 kts | 178° |
| 2026-05-06 00:58 | 21.34395 | -87.33295 | 10664 ft | 247 kts | 160° |
| 2026-05-06 00:58 | 21.32855 | -87.32494 | 10311 ft | 242 kts | 143° |
| 2026-05-06 00:58 | 21.31639 | -87.31311 | 9773 ft | 233 kts | 127° |
| 2026-05-06 00:58 | 21.30719 | -87.29833 | 9009 ft | 232 kts | 120° |
| 2026-05-06 00:59 | 21.29893 | -87.28386 | 8293 ft | 230 kts | 120° |
| 2026-05-06 00:59 | 21.29057 | -87.26931 | 7577 ft | 227 kts | 120° |
| 2026-05-06 00:59 | 21.28246 | -87.25519 | 6878 ft | 224 kts | 120° |
| 2026-05-06 00:59 | 21.27442 | -87.24120 | 6196 ft | 219 kts | 120° |
| 2026-05-06 01:00 | 21.26647 | -87.22736 | 5504 ft | 215 kts | 120° |
| 2026-05-06 01:00 | 21.25882 | -87.21403 | 4825 ft | 211 kts | 120° |
| 2026-05-06 01:00 | 21.25123 | -87.20081 | 4176 ft | 206 kts | 120° |
| 2026-05-06 01:00 | 21.24385 | -87.18797 | 3775 ft | 196 kts | 121° |
| 2026-05-06 01:01 | 21.23682 | -87.17527 | 3502 ft | 200 kts | 119° |
| 2026-05-06 01:01 | 21.22970 | -87.16239 | 3244 ft | 200 kts | 121° |
| 2026-05-06 01:01 | 21.22218 | -87.14986 | 3007 ft | 198 kts | 123° |
| 2026-05-06 01:01 | 21.21463 | -87.13767 | 2954 ft | 197 kts | 123° |
| 2026-05-06 01:02 | 21.20673 | -87.12498 | 2966 ft | 197 kts | 123° |
| 2026-05-06 01:02 | 21.19900 | -87.11256 | 2972 ft | 197 kts | 123° |
| 2026-05-06 01:02 | 21.19120 | -87.10002 | 2972 ft | 197 kts | 123° |
| 2026-05-06 01:02 | 21.18340 | -87.08752 | 2972 ft | 196 kts | 123° |
| 2026-05-06 01:03 | 21.17563 | -87.07506 | 2974 ft | 196 kts | 123° |
| 2026-05-06 01:03 | 21.16793 | -87.06270 | 2982 ft | 197 kts | 123° |
| 2026-05-06 01:03 | 21.16003 | -87.05002 | 2981 ft | 197 kts | 123° |
| 2026-05-06 01:03 | 21.15232 | -87.03766 | 2981 ft | 197 kts | 123° |
| 2026-05-06 01:04 | 21.14454 | -87.02518 | 2975 ft | 198 kts | 123° |
| 2026-05-06 01:04 | 21.13656 | -87.01240 | 2736 ft | 196 kts | 123° |
| 2026-05-06 01:04 | 21.12873 | -86.99985 | 2500 ft | 195 kts | 123° |
| 2026-05-06 01:04 | 21.12106 | -86.98756 | 2240 ft | 190 kts | 124° |
| 2026-05-06 01:05 | 21.11378 | -86.97590 | 2008 ft | 177 kts | 124° |
| 2026-05-06 01:05 | 21.10686 | -86.96481 | 1780 ft | 171 kts | 124° |
| 2026-05-06 01:05 | 21.10026 | -86.95424 | 1562 ft | 156 kts | 124° |
| 2026-05-06 01:05 | 21.09458 | -86.94517 | 1395 ft | 129 kts | 124° |
| 2026-05-06 01:06 | 21.08978 | -86.93746 | 1233 ft | 117 kts | 124° |
| 2026-05-06 01:06 | 21.08509 | -86.92997 | 1056 ft | 115 kts | 124° |
| 2026-05-06 01:06 | 21.08049 | -86.92263 | 913 ft | 114 kts | 124° |
| 2026-05-06 01:06 | 21.07586 | -86.91522 | 763 ft | 115 kts | 124° |
| 2026-05-06 01:07 | 21.07125 | -86.90785 | 607 ft | 115 kts | 124° |
| 2026-05-06 01:07 | 21.06653 | -86.90030 | 454 ft | 116 kts | 125° |
| 2026-05-06 01:07 | 21.06183 | -86.89278 | 303 ft | 117 kts | 125° |
| 2026-05-06 01:07 | 21.05721 | -86.88538 | 144 ft | 117 kts | 125° |
| 2026-05-06 01:08 | 21.05251 | -86.87785 | 17 ft | 113 kts | 124° |
| 2026-05-06 01:08 | 21.05026 | -86.87463 | 2 ft | 12 kts | 155° |
| 2026-05-06 01:08 | 21.04964 | -86.87433 | 2 ft | 8 kts | 174° |